Latest Weather Observations for Swanbourne

IDW60901

Issued at 4:55 pm WST Wednesday 26 November 2014 (issued every 10 minutes, with the page automatically refreshed every 10 minutes)

About weather observations | Map of Perth area stations | Latest observations for Perth area | Other Formats
Station Details ID: 009215 Name: SWANBOURNE Lat: -31.96 Lon: 115.76 Height: 40.96 m
Data from the previous 72 hours. | See also: Recent months at Swanbourne
Date/Time
WST
Tmp

°C
App
Tmp
°C
Dew
Point
°C
Rel
Hum
%
Delta-T

°C
Wind Press
QNH
hPa
Press
MSL
hPa
Rain
since
9 am
mm
Dir
 
Spd
km/h
Gust
km/h
Spd
kts
Gust
kts
26/04:30pm 23.1 19.7 14.7 59 5.0 ENE 26 43 14 23 - - 4.8
26/04:00pm 22.1 20.0 16.1 69 3.6 E 22 37 12 20 - - 4.6
26/03:30pm 25.2 23.3 14.3 50 6.5 E 17 26 9 14 - - 3.8
26/03:00pm 24.6 22.5 14.7 54 5.9 SE 19 30 10 16 - - 3.8
26/02:30pm 21.9 20.3 16.4 71 3.3 SE 20 32 11 17 - - 3.8
26/02:00pm 24.8 24.7 17.8 65 4.4 SE 15 22 8 12 - - 3.0
26/01:30pm 21.1 20.3 18.1 83 1.9 SSW 19 28 10 15 - - 3.0
26/01:00pm 24.1 24.7 16.9 64 4.4 SSE 9 17 5 9 - - 1.4
26/12:30pm 28.1 27.0 12.0 36 9.3 SE 9 15 5 8 - - 0.0
26/12:00pm 29.6 25.6 9.2 28 11.4 E 20 30 11 16 - - 0.0
26/11:30am 29.1 25.2 9.3 29 11.0 E 20 32 11 17 - - 0.0
26/11:00am 30.5 25.7 8.8 26 12.1 E 24 37 13 20 - - 0.0
26/10:30am 30.4 25.7 9.3 27 11.8 E 24 37 13 20 - - 0.0
26/10:00am 26.8 22.7 8.7 32 9.9 E 20 37 11 20 - - 0.0
26/09:30am 26.4 22.2 8.4 32 9.7 E 20 33 11 18 - - 0.0
26/09:00am 26.1 21.3 9.0 34 9.3 E 24 35 13 19 - - 0.0
26/08:30am 25.2 20.5 9.1 36 8.8 E 24 35 13 19 - - 0.0
26/08:00am 22.4 17.3 9.2 43 7.1 E 26 41 14 22 - - 0.0
26/07:30am 21.8 16.7 9.3 45 6.7 E 26 46 14 25 - - 0.0
26/07:00am 21.0 15.5 9.3 47 6.2 E 28 39 15 21 - - 0.0
26/06:45am 20.7 15.2 9.0 47 6.2 E 28 46 15 25 - - 0.0
26/06:30am 20.4 15.2 9.0 48 6.0 E 26 41 14 22 - - 0.0
26/06:00am 20.3 15.1 8.9 48 6.0 E 26 46 14 25 - - 0.0
26/05:30am 20.1 15.0 9.1 49 5.8 E 26 39 14 21 - - 0.0
26/05:00am 20.2 15.0 8.8 48 6.0 E 26 39 14 21 - - 0.0
26/04:30am 20.6 16.1 8.6 46 6.3 E 22 35 12 19 - - 0.0
26/04:00am 20.9 16.4 8.5 45 6.5 E 22 35 12 19 - - 0.0
26/03:30am 21.1 17.0 8.7 45 6.5 E 20 30 11 16 - - 0.0
26/03:00am 21.6 16.3 8.5 43 6.9 E 26 44 14 24 - - 0.0
26/02:30am 22.0 17.1 8.5 42 7.1 E 24 41 13 22 - - 0.0
26/02:00am 22.2 17.6 8.3 41 7.3 ESE 22 35 12 19 - - 0.0
26/01:30am 22.8 17.0 8.1 39 7.8 E 28 41 15 22 - - 0.0
26/01:02am 23.6 17.8 8.1 37 8.2 E 28 46 15 25 - - 0.0
26/01:00am 23.7 18.3 8.2 37 8.2 E 26 46 14 25 - - 0.0
26/12:30am 25.0 20.3 7.6 33 9.2 E 22 41 12 22 - - 0.0
26/12:00am 25.7 19.6 6.8 30 9.9 E 28 50 15 27 - - 0.0
 
Date/Time
WST
Tmp

°C
App
Tmp
°C
Dew
Point
°C
Rel
Hum
%
Delta-T

°C
Wind Press
QNH
hPa
Press
MSL
hPa
Rain
since
9 am
mm
Dir
 
Spd
km/h
Gust
km/h
Spd
kts
Gust
kts
25/11:45pm 26.2 19.9 5.7 27 10.6 E 28 46 15 25 - - 0.0
25/11:30pm 26.1 20.7 4.6 25 10.9 ESE 22 41 12 22 - - 0.0
25/11:00pm 26.5 21.3 3.7 23 11.4 ESE 20 43 11 23 - - 0.0
25/10:30pm 26.7 21.8 3.9 23 11.4 ESE 19 28 10 15 - - 0.0
25/10:00pm 26.2 21.3 4.1 24 11.1 ESE 19 28 10 15 - - 0.0
25/09:30pm 24.8 21.3 5.6 29 9.8 SE 13 17 7 9 - - 0.0
25/09:00pm 24.9 21.9 6.1 30 9.7 SE 11 17 6 9 - - 0.0
25/08:30pm 25.5 22.4 5.7 28 10.2 SE 11 15 6 8 - - 0.0
25/08:00pm 26.0 23.0 6.1 28 10.3 SE 11 13 6 7 - - 0.0
25/07:30pm 26.4 23.8 5.9 27 10.6 SE 9 13 5 7 - - 0.0
25/07:00pm 25.7 24.9 11.8 42 7.9 SSE 7 13 4 7 - - 0.0
25/06:30pm 27.0 26.4 13.4 43 8.0 S 9 13 5 7 - - 0.0
25/06:00pm 28.4 27.2 12.7 38 9.2 S 11 17 6 9 - - 0.0
25/05:30pm 29.0 27.7 12.4 36 9.7 S 11 17 6 9 - - 0.0
25/05:00pm 28.6 26.0 13.3 39 9.1 SSW 19 33 10 18 - - 0.0
25/04:30pm 27.9 25.1 13.1 40 8.7 SSW 20 33 11 18 - - 0.0
25/04:00pm 27.4 24.6 14.4 45 7.8 SSW 22 35 12 19 - - 0.0
25/03:30pm 27.2 24.5 14.6 46 7.6 SSW 22 35 12 19 - - 0.0
25/03:00pm 29.1 26.0 13.3 37 9.4 SSW 22 39 12 21 - - 0.0
25/02:30pm 29.4 26.0 13.6 38 9.4 SSW 24 35 13 19 - - 0.0
25/02:00pm 29.5 26.2 14.1 39 9.3 SSW 24 33 13 18 - - 0.0
25/01:30pm 29.6 26.9 13.4 37 9.7 SSW 20 32 11 17 - - 0.0
25/01:00pm 30.3 28.4 13.1 34 10.2 SSW 15 24 8 13 - - 0.0
25/12:30pm 31.5 29.3 10.8 28 12.0 S 13 22 7 12 - - 0.0
25/12:00pm 32.0 29.0 7.6 22 13.4 SE 13 20 7 11 - - 0.0
25/11:30am 30.9 27.2 8.0 24 12.6 SE 17 24 9 13 - - 0.0
25/11:00am 28.9 25.7 8.6 28 11.2 E 15 28 8 15 - - 0.0
25/10:30am 27.1 22.6 8.5 31 10.1 E 22 35 12 19 - - 0.0
25/10:00am 26.0 21.1 8.5 33 9.5 E 24 37 13 20 - - 0.0
25/09:30am 24.6 19.1 7.7 34 8.9 E 26 41 14 22 - - 0.0
25/09:00am 22.7 16.8 7.3 37 8.0 E 28 43 15 23 - - 0.0
25/08:30am 21.3 15.0 7.5 41 7.1 E 30 44 16 24 - - 0.0
25/08:00am 20.0 13.9 6.7 42 6.7 E 28 44 15 24 - - 0.0
25/07:30am 19.2 14.3 7.0 45 6.2 E 22 37 12 20 - - 0.0
25/07:00am 18.1 13.2 6.9 48 5.6 E 22 33 12 18 - - 0.0
25/06:30am 15.8 10.9 6.8 55 4.4 E 22 33 12 18 - - 0.0
25/06:00am 15.7 11.2 7.0 56 4.3 E 20 30 11 16 - - 0.0
25/05:30am 15.1 10.7 6.7 57 4.1 E 19 26 10 14 - - 0.0
25/05:00am 15.3 10.8 6.8 57 4.2 E 20 30 11 16 - - 0.0
25/04:30am 15.5 11.2 7.0 57 4.2 E 19 30 10 16 - - 0.0
25/04:00am 16.0 11.6 7.2 56 4.4 E 20 26 11 14 - - 0.0
25/03:30am 16.2 12.4 7.4 56 4.4 E 17 22 9 12 - - 0.0
25/03:00am 16.8 12.3 6.9 52 4.9 E 20 28 11 15 - - 0.0
25/02:30am 17.2 12.8 6.7 50 5.2 E 19 28 10 15 - - 0.0
25/02:00am 17.1 13.0 6.0 48 5.4 ESE 17 22 9 12 - - 0.0
25/01:30am 17.4 13.2 5.7 46 5.7 ESE 17 24 9 13 - - 0.0
25/01:00am 15.9 12.6 8.2 60 3.9 ESE 15 20 8 11 - - 0.0
25/12:30am 15.2 13.2 10.2 72 2.6 SE 11 17 6 9 - - 0.0
25/12:00am 15.2 14.2 11.0 76 2.2 SE 7 9 4 5 - - 0.0
 
Date/Time
WST
Tmp

°C
App
Tmp
°C
Dew
Point
°C
Rel
Hum
%
Delta-T

°C
Wind Press
QNH
hPa
Press
MSL
hPa
Rain
since
9 am
mm
Dir
 
Spd
km/h
Gust
km/h
Spd
kts
Gust
kts
24/11:30pm 15.7 14.4 11.1 74 2.5 SE 9 11 5 6 - - 0.0
24/11:00pm 16.5 14.8 11.2 71 2.9 SE 11 17 6 9 - - 0.0
24/10:30pm 17.0 15.3 11.3 69 3.1 SSE 11 15 6 8 - - 0.0
24/10:00pm 17.2 15.6 11.5 69 3.1 SSE 11 17 6 9 - - 0.0
24/09:30pm 17.3 15.7 11.6 69 3.1 S 11 19 6 10 - - 0.0
24/09:00pm 17.7 16.1 11.7 68 3.3 S 11 17 6 9 - - 0.0
24/08:30pm 17.6 16.4 12.9 74 2.6 S 11 19 6 10 - - 0.0
24/08:00pm 18.1 16.7 13.4 74 2.7 S 13 20 7 11 - - 0.0
24/07:30pm 18.4 15.7 12.8 70 3.1 S 19 30 10 16 - - 0.0
24/07:00pm 18.6 15.6 12.4 67 3.5 S 20 35 11 19 - - 0.0
24/06:30pm 19.3 15.7 11.8 62 4.2 S 22 37 12 20 - - 0.0
24/06:00pm 19.5 14.9 12.3 63 4.0 SSW 28 43 15 23 - - 0.0
24/05:30pm 20.0 14.9 12.0 60 4.5 SSW 30 44 16 24 - - 0.0
24/05:00pm 20.9 16.0 11.3 54 5.3 SSW 28 41 15 22 - - 0.0
24/04:30pm 20.9 16.1 11.5 55 5.2 SSW 28 44 15 24 - - 0.0
24/04:00pm 21.1 15.9 11.7 55 5.2 SSW 30 43 16 23 - - 0.0
24/03:30pm 21.4 16.1 11.4 53 5.6 SSW 30 43 16 23 - - 0.0
24/03:00pm 21.6 16.3 11.3 52 5.7 SSW 30 43 16 23 - - 0.0
24/02:30pm 22.2 16.8 11.0 49 6.2 SSW 30 43 16 23 - - 0.0
24/02:00pm 22.4 17.3 10.5 47 6.5 SSW 28 37 15 20 - - 0.0
24/01:30pm 23.1 18.5 9.8 43 7.2 SSW 24 33 13 18 - - 0.0
24/01:00pm 22.1 17.3 8.9 43 7.0 SSW 24 35 13 19 - - 0.0
24/12:30pm 21.8 17.0 9.0 44 6.8 SW 24 32 13 17 - - 0.0
24/12:00pm 26.6 24.1 6.6 28 10.5 ESE 9 20 5 11 - - 0.0
24/11:30am 24.6 21.2 5.9 30 9.6 SE 13 20 7 11 - - 0.0
24/11:00am 24.6 21.2 5.9 30 9.6 SE 13 28 7 15 - - 0.0
24/10:30am 22.9 19.5 5.8 33 8.6 ESE 13 22 7 12 - - 0.0
24/10:00am 22.3 18.9 5.7 34 8.3 ESE 13 22 7 12 - - 0.0
24/09:30am 20.5 16.9 4.9 36 7.6 ESE 13 26 7 14 - - 0.0
24/09:00am 19.6 16.1 5.6 40 6.9 E 13 26 7 14 - - 0.0
24/08:30am 18.1 13.4 5.0 42 6.3 ESE 19 26 10 14 - - 0.0
24/08:00am 17.6 12.8 4.9 43 6.1 ESE 19 30 10 16 - - 0.0
24/07:30am 16.6 11.7 4.9 46 5.6 E 20 33 11 18 - - 0.0
24/07:00am 15.8 11.5 5.4 50 5.0 E 17 24 9 13 - - 0.0
24/06:30am 14.5 10.2 5.3 54 4.3 ESE 17 28 9 15 - - 0.0
24/06:00am 13.1 9.6 5.3 59 3.6 ESE 13 19 7 10 - - 0.0
24/05:30am 11.6 8.4 5.0 64 3.0 SE 11 17 6 9 - - 0.0
24/05:00am 11.2 8.0 4.9 65 2.9 SE 11 20 6 11 - - 0.0
24/04:30am 11.1 7.9 5.0 66 2.8 SE 11 19 6 10 - - 0.0
24/04:00am 11.1 7.5 5.2 67 2.7 SE 13 19 7 10 - - 0.0
24/03:30am 11.3 7.7 5.2 66 2.8 SE 13 22 7 12 - - 0.0
24/03:00am 11.4 7.9 5.3 66 2.8 SSE 13 20 7 11 - - 0.0
24/02:30am 11.7 8.2 5.3 65 3.0 SE 13 20 7 11 - - 0.0
24/02:00am 12.2 8.7 5.6 64 3.1 SE 13 22 7 12 - - 0.0
24/01:30am 12.7 8.9 5.8 63 3.2 SSE 15 22 8 12 - - 0.0
24/01:00am 13.0 9.2 5.9 62 3.4 SSE 15 26 8 14 - - 0.0
24/12:30am 13.4 9.7 6.3 62 3.4 SSE 15 26 8 14 - - 0.0
24/12:00am 13.5 9.7 5.9 60 3.6 S 15 24 8 13 - - 0.0
 
Date/Time
WST
Tmp

°C
App
Tmp
°C
Dew
Point
°C
Rel
Hum
%
Delta-T

°C
Wind Press
QNH
hPa
Press
MSL
hPa
Rain
since
9 am
mm
Dir
 
Spd
km/h
Gust
km/h
Spd
kts
Gust
kts
23/11:30pm 14.0 9.8 5.9 58 3.9 S 17 28 9 15 - - 0.0
23/11:00pm 14.6 10.1 5.9 56 4.2 S 19 30 10 16 - - 0.0
23/10:30pm 15.3 10.9 6.6 56 4.2 S 19 30 10 16 - - 0.0
23/10:00pm 15.8 12.5 8.1 60 3.9 S 15 22 8 12 - - 0.0
23/09:30pm 16.2 13.5 8.9 62 3.8 S 13 22 7 12 - - 0.0
23/09:00pm 16.6 13.2 9.3 62 3.8 S 17 26 9 14 - - 0.0
23/08:30pm 16.6 13.4 10.0 65 3.5 S 17 28 9 15 - - 0.0
23/08:00pm 16.7 13.1 9.9 64 3.6 S 19 26 10 14 - - 0.0
23/07:30pm 16.8 13.0 9.7 63 3.7 S 20 32 11 17 - - 0.0
23/07:00pm 17.0 12.7 9.2 60 4.1 SSW 22 39 12 21 - - 0.0
23/06:30pm 17.6 12.4 9.0 57 4.5 SSW 26 37 14 20 - - 0.0
23/06:00pm 18.2 12.9 8.5 53 5.0 SSW 26 35 14 19 - - 0.0
23/05:30pm 19.1 14.3 9.0 52 5.3 SSW 24 33 13 18 - - 0.0
23/05:00pm 19.6 14.6 9.5 52 5.4 SSW 26 37 14 20 - - 0.0

Latest Capital City Observations: Canberra | Sydney | Melbourne | Brisbane | Adelaide | Perth | Hobart | Darwin

Other Formats:

Comma delimited format used in spreadsheet applications
http://www.bom.gov.au/fwo/IDW60901/IDW60901.94614.axf

JavaScript Object Notation format (JSON) in row-major order
http://www.bom.gov.au/fwo/IDW60901/IDW60901.94614.json